This is the latest recevied weather packets stored in our database for station/object N3TTT-13. If no packets are shown the sender has not sent any weather packets the latest 10 day(s).
| Time | Temp. | Humidity | Pressure | Rain* | Wind** | Luminosity | Snow |
|---|---|---|---|---|---|---|---|
| 1777828230 | 12.78° C | 44% | 1015.5 hPa | 0 mm | - | 677 W/m² | - |
| 1777827926 | 12.78° C | 44% | 1015.4 hPa | 0 mm | - | 668 W/m² | - |
| 1777827624 | 12.22° C | 44% | 1015.5 hPa | 0 mm | - | 676 W/m² | - |
| 1777827321 | 12.78° C | 44% | 1015.4 hPa | 0 mm | - | 667 W/m² | - |
| 1777827017 | 12.78° C | 45% | 1015.4 hPa | 0 mm | - | 702 W/m² | - |
| 1777826715 | 13.33° C | 45% | 1015.5 hPa | 0 mm | - | 720 W/m² | - |
| 1777826411 | 12.78° C | 45% | 1015.7 hPa | 0 mm | - | 770 W/m² | - |
| 1777826109 | 12.78° C | 44% | 1015.5 hPa | 0 mm | - | 745 W/m² | - |
| 1777825805 | 12.22° C | 48% | 1015.7 hPa | 0 mm | - | 425 W/m² | - |
| 1777825503 | 12.22° C | 47% | 1015.5 hPa | 0 mm | - | 566 W/m² | - |
| 1777825200 | 11.67° C | 48% | 1015.6 hPa | 0 mm | - | 784 W/m² | - |
| 1777824896 | 12.22° C | 47% | 1015.7 hPa | 0 mm | - | 324 W/m² | - |
| 1777824592 | 10.56° C | 50% | 1015.6 hPa | 0 mm | - | 760 W/m² | - |
| 1777824290 | 11.67° C | 49% | 1015.8 hPa | 0 mm | - | 219 W/m² | - |
| 1777823985 | 12.22° C | 49% | 1015.6 hPa | 0 mm | - | 766 W/m² | - |
| 1777823682 | 11.67° C | 50% | 1015.8 hPa | 0 mm | - | 214 W/m² | - |
| 1777823379 | 11.67° C | 49% | 1015.5 hPa | 0 mm | - | 812 W/m² | - |
| 1777823077 | 12.78° C | 47% | 1015.7 hPa | 0 mm | - | 797 W/m² | - |
| 1777822775 | 11.67° C | 49% | 1015.5 hPa | 0 mm | - | 803 W/m² | - |
| 1777822472 | 10.56° C | 52% | 1015.6 hPa | 0 mm | - | 527 W/m² | - |
| 1777822170 | 12.22° C | 50% | 1015.5 hPa | 0 mm | - | 223 W/m² | - |
| 1777821867 | 11.11° C | 52% | 1015.7 hPa | 0 mm | - | 821 W/m² | - |
| 1777821564 | 10.56° C | 53% | 1016 hPa | 0 mm | - | 819 W/m² | - |
| 1777821262 | 11.11° C | 53% | 1015.7 hPa | 0 mm | - | 851 W/m² | - |
| 1777820959 | 11.67° C | 52% | 1015.9 hPa | 0 mm | - | 834 W/m² | - |
* Rain latest hour (hover to see other rain measurements)
** Current wind speed in m/s (hover to see current wind gust speed)